createdAt,value
2024-01-31T00:00:35.000Z,103034.78
2024-01-31T00:03:23.650Z,103028.83
2024-01-31T00:05:52.188Z,103025.67
2024-01-31T00:08:23.473Z,103023.27
2024-01-31T00:10:53.702Z,103023.76
2024-01-31T00:13:22.331Z,103021.55
2024-01-31T00:15:51.181Z,103027.23
2024-01-31T00:18:19.944Z,103022.11
2024-01-31T00:20:48.647Z,103021.41
2024-01-31T00:23:17.179Z,103019.79
2024-01-31T00:25:45.806Z,103015.67
2024-01-31T00:28:14.493Z,103012.59
2024-01-31T00:30:43.086Z,103011.41
2024-01-31T00:33:11.657Z,103009.15
2024-01-31T00:35:40.154Z,103009.17
2024-01-31T00:38:08.857Z,103013.79
2024-01-31T00:40:37.643Z,103009.27
2024-01-31T00:43:06.291Z,103006.95
2024-01-31T00:45:35.029Z,103003.13
2024-01-31T00:48:03.959Z,103003.28
2024-01-31T00:50:32.686Z,103002.00
2024-01-31T00:53:01.372Z,103002.41
2024-01-31T00:55:30.151Z,103002.17
2024-01-31T00:57:58.686Z,103000.29
2024-01-31T01:00:27.737Z,102999.91
2024-01-31T01:02:56.461Z,102997.79
2024-01-31T01:05:25.004Z,102996.74
2024-01-31T01:07:53.493Z,102994.26
2024-01-31T01:10:22.243Z,102990.57
2024-01-31T01:12:51.064Z,102988.21
2024-01-31T01:15:20.788Z,102986.32
2024-01-31T01:17:49.341Z,102985.08
2024-01-31T01:20:19.115Z,102975.95
2024-01-31T01:22:48.557Z,102973.38
2024-01-31T01:25:17.620Z,102973.10
2024-01-31T01:27:52.508Z,102967.84
2024-01-31T01:30:22.557Z,102964.65
2024-01-31T01:32:51.784Z,102961.16
2024-01-31T01:35:20.306Z,102962.59
2024-01-31T01:37:49.944Z,102958.77
2024-01-31T01:40:18.802Z,102961.31
2024-01-31T01:42:47.331Z,102957.79
2024-01-31T01:45:15.736Z,102957.10
2024-01-31T01:47:49.791Z,102954.02
2024-01-31T01:50:19.381Z,102949.13
2024-01-31T01:52:48.621Z,102947.20
2024-01-31T01:55:17.558Z,102940.87
2024-01-31T01:57:46.469Z,102941.92
2024-01-31T02:00:16.469Z,102941.45
2024-01-31T02:02:45.243Z,102937.70
2024-01-31T02:05:14.523Z,102940.11
2024-01-31T02:07:43.816Z,102936.66
2024-01-31T02:10:12.395Z,102937.72
2024-01-31T02:12:40.830Z,102934.13
2024-01-31T02:15:10.194Z,102932.55
2024-01-31T02:17:38.876Z,102931.45
2024-01-31T02:20:08.475Z,102927.48
2024-01-31T02:22:36.964Z,102926.23
2024-01-31T02:25:14.028Z,102925.06
2024-01-31T02:27:42.480Z,102921.20
2024-01-31T02:30:11.569Z,102920.33
2024-01-31T02:32:40.060Z,102910.98
2024-01-31T02:35:08.790Z,102908.48
2024-01-31T02:37:43.027Z,102907.45
2024-01-31T02:40:11.984Z,102906.60
2024-01-31T02:42:40.363Z,102905.06
2024-01-31T02:45:09.327Z,102904.73
2024-01-31T02:47:38.575Z,102903.36
2024-01-31T02:50:07.802Z,102900.05
2024-01-31T02:52:36.378Z,102899.05
2024-01-31T02:55:05.529Z,102895.27
2024-01-31T02:57:34.189Z,102891.95
2024-01-31T03:00:03.534Z,102893.27
2024-01-31T03:02:32.175Z,102893.28
2024-01-31T03:05:01.140Z,102894.11
2024-01-31T03:07:29.794Z,102890.12
2024-01-31T03:09:58.495Z,102888.17
2024-01-31T03:12:27.129Z,102891.56
2024-01-31T03:14:55.705Z,102894.41
2024-01-31T03:17:24.192Z,102897.07
2024-01-31T03:19:52.862Z,102892.88
2024-01-31T03:22:21.286Z,102899.87
2024-01-31T03:24:49.606Z,102906.36
2024-01-31T03:27:18.117Z,102901.51
2024-01-31T03:29:46.500Z,102900.64
2024-01-31T03:32:14.865Z,102898.16
2024-01-31T03:34:43.413Z,102896.39
2024-01-31T03:37:11.915Z,102890.91
2024-01-31T03:39:41.096Z,102891.73
2024-01-31T03:42:09.539Z,102888.30
2024-01-31T03:44:37.917Z,102886.92
2024-01-31T03:47:06.384Z,102886.45
2024-01-31T03:49:34.744Z,102888.02
2024-01-31T03:52:03.277Z,102890.49
2024-01-31T03:54:31.721Z,102891.71
2024-01-31T03:57:00.048Z,102894.50
2024-01-31T03:59:28.520Z,102892.19
2024-01-31T04:01:57.069Z,102890.98
2024-01-31T04:04:25.597Z,102890.13
2024-01-31T04:06:54.586Z,102887.75
2024-01-31T04:09:23.042Z,102882.78
2024-01-31T04:11:51.477Z,102881.80
2024-01-31T04:14:19.989Z,102879.98
2024-01-31T04:16:49.292Z,102885.73
2024-01-31T04:19:17.836Z,102878.40
2024-01-31T04:21:46.343Z,102876.04
2024-01-31T04:24:14.764Z,102878.92
2024-01-31T04:26:45.452Z,102877.34
2024-01-31T04:29:13.950Z,102880.26
2024-01-31T04:31:42.538Z,102878.12
2024-01-31T04:34:11.306Z,102886.00
2024-01-31T04:36:40.125Z,102889.05
2024-01-31T04:39:08.694Z,102893.06
2024-01-31T04:41:36.994Z,102899.18
2024-01-31T04:44:05.652Z,102900.33
2024-01-31T04:46:34.010Z,102903.51
2024-01-31T04:49:02.447Z,102905.45
2024-01-31T04:51:31.099Z,102905.96
2024-01-31T04:53:59.513Z,102902.27
2024-01-31T04:56:28.072Z,102901.48
2024-01-31T04:58:56.654Z,102901.96
2024-01-31T05:01:25.181Z,102900.42
2024-01-31T05:03:54.254Z,102906.64
2024-01-31T05:06:22.910Z,102910.69
2024-01-31T05:08:51.690Z,102910.40
2024-01-31T05:11:20.390Z,102908.19
2024-01-31T05:13:51.633Z,102904.31
2024-01-31T05:16:20.709Z,102905.33
2024-01-31T05:18:49.520Z,102904.27
2024-01-31T05:21:18.206Z,102903.06
2024-01-31T05:23:46.683Z,102907.23
2024-01-31T05:26:15.111Z,102909.46
2024-01-31T05:28:44.822Z,102906.36
2024-01-31T05:31:13.602Z,102907.13
2024-01-31T05:33:42.380Z,102906.88
2024-01-31T05:36:10.834Z,102909.96
2024-01-31T05:38:41.365Z,102907.23
2024-01-31T05:41:11.421Z,102906.45
2024-01-31T05:43:40.184Z,102904.99
2024-01-31T05:46:09.091Z,102902.30
2024-01-31T05:48:38.092Z,102907.49
2024-01-31T05:51:06.632Z,102908.61
2024-01-31T05:53:35.121Z,102908.97
2024-01-31T05:56:04.238Z,102906.89
2024-01-31T05:58:32.968Z,102909.48
2024-01-31T06:01:01.785Z,102910.36
2024-01-31T06:03:30.387Z,102912.66
2024-01-31T06:06:00.037Z,102913.20
2024-01-31T06:08:28.669Z,102909.55
2024-01-31T06:11:04.510Z,102909.70
2024-01-31T06:13:33.545Z,102909.96
2024-01-31T06:16:03.648Z,102906.11
2024-01-31T06:18:36.017Z,102905.25
2024-01-31T06:21:05.927Z,102905.88
2024-01-31T06:23:34.511Z,102901.19
2024-01-31T06:26:05.999Z,102899.45
2024-01-31T06:28:40.098Z,102896.38
2024-01-31T06:31:25.714Z,102897.02
2024-01-31T06:33:54.495Z,102901.30
2024-01-31T06:36:23.020Z,102904.04
2024-01-31T06:38:51.604Z,102902.13
2024-01-31T06:41:20.021Z,102902.13
2024-01-31T06:43:48.523Z,102904.41
2024-01-31T06:46:17.800Z,102905.30
2024-01-31T06:48:46.318Z,102898.15
2024-01-31T06:51:14.727Z,102895.83
2024-01-31T06:53:43.045Z,102892.34
2024-01-31T06:56:18.131Z,102890.93
2024-01-31T06:58:50.957Z,102894.23
2024-01-31T07:01:20.469Z,102896.38
2024-01-31T07:03:49.073Z,102893.32
2024-01-31T07:06:17.494Z,102892.67
2024-01-31T07:08:46.195Z,102893.70
2024-01-31T07:11:14.776Z,102891.35
2024-01-31T07:13:43.362Z,102890.35
2024-01-31T07:16:12.264Z,102890.28
2024-01-31T07:18:44.826Z,102885.88
2024-01-31T07:21:24.678Z,102882.34
2024-01-31T07:23:53.964Z,102880.75
2024-01-31T07:26:27.553Z,102880.88
2024-01-31T07:28:56.161Z,102880.56
2024-01-31T07:31:24.695Z,102875.56
2024-01-31T07:33:53.130Z,102869.83
2024-01-31T07:36:21.566Z,102873.89
2024-01-31T07:38:49.984Z,102876.69
2024-01-31T07:41:18.470Z,102876.66
2024-01-31T07:43:46.992Z,102875.77
2024-01-31T07:46:15.671Z,102876.90
2024-01-31T07:48:44.471Z,102878.05
2024-01-31T07:51:12.904Z,102872.34
2024-01-31T07:53:41.288Z,102868.03
2024-01-31T07:56:09.866Z,102867.19
2024-01-31T07:58:38.709Z,102860.42
2024-01-31T08:01:07.944Z,102855.63
2024-01-31T08:03:40.666Z,102848.29
2024-01-31T08:06:09.804Z,102847.40
2024-01-31T08:08:39.176Z,102850.09
2024-01-31T08:11:07.825Z,102848.62
2024-01-31T08:13:36.483Z,102842.20
2024-01-31T08:16:07.373Z,102841.48
2024-01-31T08:18:35.720Z,102842.80
2024-01-31T08:21:04.864Z,102841.36
2024-01-31T08:23:33.317Z,102841.54
2024-01-31T08:26:01.900Z,102837.98
2024-01-31T08:28:30.484Z,102842.20
2024-01-31T08:30:58.911Z,102839.30
2024-01-31T08:33:27.497Z,102836.02
2024-01-31T08:35:56.457Z,102831.95
2024-01-31T08:38:24.921Z,102835.95
2024-01-31T08:40:53.470Z,102833.36
2024-01-31T08:43:22.001Z,102833.73
2024-01-31T08:45:50.362Z,102836.00
2024-01-31T08:48:19.486Z,102831.69
2024-01-31T08:50:49.324Z,102833.79
2024-01-31T08:53:18.051Z,102830.86
2024-01-31T08:55:55.309Z,102828.81
2024-01-31T08:58:29.912Z,102826.30
2024-01-31T09:00:58.477Z,102825.64
2024-01-31T09:03:27.238Z,102820.80
2024-01-31T09:05:55.998Z,102821.54
2024-01-31T09:08:24.712Z,102820.89
2024-01-31T09:10:54.752Z,102816.85
2024-01-31T09:13:24.408Z,102815.91
2024-01-31T09:15:53.024Z,102814.91
2024-01-31T09:18:22.170Z,102813.45
2024-01-31T09:20:51.733Z,102809.65
2024-01-31T09:23:20.322Z,102803.39
2024-01-31T09:25:48.942Z,102797.42
2024-01-31T09:28:17.588Z,102792.64
2024-01-31T09:30:46.592Z,102790.52
2024-01-31T09:33:15.079Z,102787.55
2024-01-31T09:35:43.700Z,102789.02
2024-01-31T09:38:12.264Z,102779.64
2024-01-31T09:40:40.868Z,102769.16
2024-01-31T09:43:10.242Z,102767.79
2024-01-31T09:45:42.084Z,102761.02
2024-01-31T09:48:13.800Z,102756.17
2024-01-31T09:50:42.627Z,102758.58
2024-01-31T09:53:12.850Z,102755.77
2024-01-31T09:55:44.849Z,102754.48
2024-01-31T09:58:13.246Z,102749.36
2024-01-31T10:00:42.137Z,102749.29
2024-01-31T10:03:11.166Z,102745.09
2024-01-31T10:05:39.618Z,102742.87
2024-01-31T10:08:08.867Z,102741.20
2024-01-31T10:10:38.704Z,102738.92
2024-01-31T10:13:10.954Z,102740.17
2024-01-31T10:15:39.428Z,102740.02
2024-01-31T10:18:08.345Z,102730.36
2024-01-31T10:20:36.899Z,102727.72
2024-01-31T10:23:05.603Z,102722.02
2024-01-31T10:25:34.293Z,102717.81
2024-01-31T10:28:06.380Z,102710.85
2024-01-31T10:30:40.118Z,102711.25
2024-01-31T10:33:10.405Z,102708.91
2024-01-31T10:36:23.947Z,102710.50
2024-01-31T10:38:32.831Z,102708.80
2024-01-31T10:41:03.600Z,102705.04
2024-01-31T10:43:33.889Z,102707.35
2024-01-31T10:46:02.374Z,102703.16
2024-01-31T10:48:31.082Z,102698.64
2024-01-31T10:51:02.510Z,102701.45
2024-01-31T10:53:32.508Z,102690.73
2024-01-31T10:56:02.494Z,102689.27
2024-01-31T10:58:32.046Z,102685.84
2024-01-31T11:01:04.889Z,102685.46
2024-01-31T11:03:33.738Z,102681.63
2024-01-31T11:06:03.487Z,102675.95
2024-01-31T11:08:32.265Z,102669.98
2024-01-31T11:11:00.862Z,102664.71
2024-01-31T11:13:29.343Z,102657.41
2024-01-31T11:15:57.771Z,102656.49
2024-01-31T11:18:26.615Z,102651.80
2024-01-31T11:20:57.888Z,102651.71
2024-01-31T11:23:27.167Z,102643.06
2024-01-31T11:25:56.034Z,102640.48
2024-01-31T11:28:27.143Z,102639.17
2024-01-31T11:30:56.133Z,102642.13
2024-01-31T11:33:24.764Z,102636.95
2024-01-31T11:35:53.659Z,102627.11
2024-01-31T11:38:22.576Z,102624.38
2024-01-31T11:40:52.728Z,102619.19
2024-01-31T11:43:21.233Z,102613.87
2024-01-31T11:45:50.152Z,102607.10
2024-01-31T11:48:18.883Z,102605.58
2024-01-31T11:50:47.556Z,102605.74
2024-01-31T11:53:16.434Z,102609.11
2024-01-31T11:55:48.569Z,102606.42
2024-01-31T11:58:17.163Z,102603.05
2024-01-31T12:00:46.297Z,102596.61
2024-01-31T12:03:15.096Z,102597.38
2024-01-31T12:05:43.886Z,102591.04
2024-01-31T12:08:19.278Z,102592.89
2024-01-31T12:10:51.145Z,102598.00
2024-01-31T12:13:19.737Z,102595.52
2024-01-31T12:15:49.251Z,102589.67
2024-01-31T12:18:18.633Z,102584.13
2024-01-31T12:20:47.054Z,102586.69
2024-01-31T12:23:15.502Z,102587.41
2024-01-31T12:25:43.978Z,102587.44
2024-01-31T12:28:12.301Z,102585.41
2024-01-31T12:30:40.640Z,102586.48
2024-01-31T12:33:09.401Z,102579.79
2024-01-31T12:35:37.962Z,102576.55
2024-01-31T12:38:06.507Z,102572.64
2024-01-31T12:40:34.869Z,102572.30
2024-01-31T12:43:04.162Z,102570.56
2024-01-31T12:45:34.530Z,102568.31
2024-01-31T12:48:03.210Z,102568.00
2024-01-31T12:50:32.645Z,102566.93
2024-01-31T12:53:01.275Z,102572.06
2024-01-31T12:55:29.648Z,102571.77
2024-01-31T12:57:58.141Z,102568.65
2024-01-31T13:00:26.659Z,102566.80
2024-01-31T13:02:55.145Z,102566.95
2024-01-31T13:05:24.112Z,102567.84
2024-01-31T13:07:53.181Z,102562.58
2024-01-31T13:10:22.080Z,102561.90
2024-01-31T13:12:50.650Z,102560.60
2024-01-31T13:15:20.874Z,102562.77
2024-01-31T13:17:50.279Z,102561.98
2024-01-31T13:20:18.884Z,102558.83
2024-01-31T13:22:47.450Z,102561.20
2024-01-31T13:25:16.449Z,102555.11
2024-01-31T13:27:44.942Z,102554.77
2024-01-31T13:30:13.952Z,102557.77
2024-01-31T13:32:42.559Z,102559.72
2024-01-31T13:35:12.114Z,102560.08
2024-01-31T13:37:40.703Z,102559.67
2024-01-31T13:40:11.505Z,102561.57
2024-01-31T13:42:40.007Z,102558.22
2024-01-31T13:45:08.767Z,102558.45
2024-01-31T13:47:38.507Z,102554.92
2024-01-31T13:50:07.871Z,102553.87
2024-01-31T13:52:36.313Z,102546.30
2024-01-31T13:55:05.415Z,102545.17
2024-01-31T13:57:33.893Z,102545.30
2024-01-31T14:00:08.449Z,102536.52
2024-01-31T14:02:38.193Z,102534.91
2024-01-31T14:05:07.140Z,102535.10
2024-01-31T14:07:35.608Z,102530.77
2024-01-31T14:10:04.426Z,102530.23
2024-01-31T14:12:32.864Z,102529.13
2024-01-31T14:15:01.510Z,102528.48
2024-01-31T14:17:30.589Z,102529.98
2024-01-31T14:19:59.095Z,102525.64
2024-01-31T14:22:35.811Z,102520.30
2024-01-31T14:25:16.746Z,102519.07
2024-01-31T14:27:47.275Z,102515.21
2024-01-31T14:30:16.281Z,102519.08
2024-01-31T14:32:45.002Z,102514.61
2024-01-31T14:35:13.520Z,102516.62
2024-01-31T14:37:42.580Z,102513.67
2024-01-31T14:40:11.680Z,102516.48
2024-01-31T14:42:40.253Z,102512.83
2024-01-31T14:45:10.841Z,102515.99
2024-01-31T14:47:39.312Z,102515.48
2024-01-31T14:50:08.046Z,102518.89
2024-01-31T14:52:36.447Z,102521.80
2024-01-31T14:55:05.426Z,102523.30
2024-01-31T14:57:34.925Z,102528.70
2024-01-31T15:00:04.729Z,102526.19
2024-01-31T15:02:33.271Z,102530.41
2024-01-31T15:05:01.864Z,102529.31
2024-01-31T15:07:31.248Z,102523.24
2024-01-31T15:10:00.135Z,102519.64
2024-01-31T15:12:29.013Z,102521.74
2024-01-31T15:14:57.640Z,102519.67
2024-01-31T15:17:26.396Z,102521.67
2024-01-31T15:19:55.081Z,102525.27
2024-01-31T15:22:23.589Z,102522.52
2024-01-31T15:24:52.024Z,102524.52
2024-01-31T15:27:20.505Z,102521.98
2024-01-31T15:29:49.025Z,102526.02
2024-01-31T15:32:17.780Z,102526.51
2024-01-31T15:34:46.373Z,102526.23
2024-01-31T15:37:14.837Z,102525.79
2024-01-31T15:39:43.428Z,102532.09
2024-01-31T15:42:11.935Z,102528.34
2024-01-31T15:44:40.219Z,102529.08
2024-01-31T15:47:16.351Z,102537.06
2024-01-31T15:49:46.000Z,102541.88
2024-01-31T15:52:15.690Z,102542.89
2024-01-31T15:54:44.046Z,102543.83
2024-01-31T15:57:12.426Z,102548.89
2024-01-31T15:59:40.938Z,102552.55
2024-01-31T16:02:09.491Z,102553.48
2024-01-31T16:04:37.865Z,102556.35
2024-01-31T16:07:06.224Z,102556.84
2024-01-31T16:09:34.693Z,102562.36
2024-01-31T16:12:03.684Z,102558.23
2024-01-31T16:14:32.367Z,102555.94
2024-01-31T16:17:01.097Z,102555.95
2024-01-31T16:19:30.313Z,102556.90
2024-01-31T16:21:59.260Z,102558.79
2024-01-31T16:24:27.877Z,102559.42
2024-01-31T16:26:56.318Z,102556.74
2024-01-31T16:29:24.882Z,102556.31
2024-01-31T16:31:54.136Z,102558.43
2024-01-31T16:34:23.003Z,102557.35
2024-01-31T16:36:52.540Z,102553.67
2024-01-31T16:39:21.435Z,102556.23
2024-01-31T16:41:52.360Z,102556.50
2024-01-31T16:44:22.199Z,102553.27
2024-01-31T16:46:50.775Z,102551.55
2024-01-31T16:49:19.246Z,102555.14
2024-01-31T16:51:48.040Z,102552.17
2024-01-31T16:54:16.766Z,102559.27
2024-01-31T16:56:45.229Z,102552.09
2024-01-31T16:59:13.795Z,102557.37
2024-01-31T17:01:45.862Z,102560.93
2024-01-31T17:04:14.316Z,102560.96
2024-01-31T17:06:43.224Z,102559.98
2024-01-31T17:09:12.477Z,102561.02
2024-01-31T17:11:41.804Z,102560.08
2024-01-31T17:14:10.410Z,102556.86
2024-01-31T17:16:44.484Z,102556.45
2024-01-31T17:19:13.464Z,102552.34
2024-01-31T17:21:42.251Z,102551.23
2024-01-31T17:24:11.049Z,102554.34
2024-01-31T17:26:39.643Z,102557.99
2024-01-31T17:29:08.161Z,102561.04
2024-01-31T17:31:36.558Z,102560.63
2024-01-31T17:34:05.099Z,102558.80
2024-01-31T17:36:33.607Z,102560.84
2024-01-31T17:39:02.240Z,102559.00
2024-01-31T17:41:31.132Z,102559.80
2024-01-31T17:43:59.674Z,102563.09
2024-01-31T17:46:28.283Z,102557.44
2024-01-31T17:48:56.669Z,102552.39
2024-01-31T17:51:25.433Z,102551.95
2024-01-31T17:53:54.148Z,102549.76
2024-01-31T17:56:23.246Z,102545.07
2024-01-31T17:58:52.826Z,102543.44
2024-01-31T18:01:21.299Z,102533.50
2024-01-31T18:03:49.695Z,102529.02
2024-01-31T18:06:18.214Z,102528.31
2024-01-31T18:08:46.765Z,102520.79
2024-01-31T18:11:15.331Z,102519.34
2024-01-31T18:13:49.491Z,102515.96
2024-01-31T18:16:21.199Z,102508.02
2024-01-31T18:18:49.739Z,102510.57
2024-01-31T18:21:18.725Z,102505.27
2024-01-31T18:23:47.473Z,102501.96
2024-01-31T18:26:20.885Z,102498.61
2024-01-31T18:28:49.450Z,102495.17
2024-01-31T18:31:20.658Z,102495.17
2024-01-31T18:33:49.375Z,102492.28
2024-01-31T18:36:18.370Z,102495.94
2024-01-31T18:38:47.287Z,102496.73
2024-01-31T18:41:17.445Z,102492.27
2024-01-31T18:43:46.388Z,102493.37
2024-01-31T18:46:15.369Z,102485.35
2024-01-31T18:48:45.484Z,102482.80
2024-01-31T18:51:14.998Z,102482.17
2024-01-31T18:53:44.159Z,102482.17
2024-01-31T18:56:14.174Z,102483.10
2024-01-31T18:58:43.832Z,102481.83
2024-01-31T19:01:12.777Z,102490.16
2024-01-31T19:03:41.326Z,102487.58
2024-01-31T19:06:10.027Z,102485.72
2024-01-31T19:08:38.594Z,102486.93
2024-01-31T19:11:07.148Z,102488.95
2024-01-31T19:13:35.642Z,102489.21
2024-01-31T19:16:05.494Z,102488.39
2024-01-31T19:18:34.836Z,102491.04
2024-01-31T19:21:03.808Z,102493.27
2024-01-31T19:23:35.176Z,102493.71
2024-01-31T19:26:03.631Z,102490.54
2024-01-31T19:28:32.227Z,102490.48
2024-01-31T19:31:00.841Z,102488.89
2024-01-31T19:33:29.553Z,102489.99
2024-01-31T19:35:58.206Z,102485.48
2024-01-31T19:38:26.928Z,102484.86
2024-01-31T19:40:55.381Z,102480.14
2024-01-31T19:43:23.869Z,102472.02
2024-01-31T19:45:52.602Z,102474.67
2024-01-31T19:48:22.716Z,102468.85
2024-01-31T19:50:51.223Z,102466.81
2024-01-31T19:53:19.857Z,102465.06
2024-01-31T19:55:48.221Z,102462.48
2024-01-31T19:58:16.615Z,102456.95
2024-01-31T20:00:45.106Z,102457.98
2024-01-31T20:03:13.813Z,102453.71
2024-01-31T20:05:42.747Z,102450.19
2024-01-31T20:08:11.339Z,102450.61
2024-01-31T20:10:39.631Z,102448.29
2024-01-31T20:13:08.202Z,102444.73
2024-01-31T20:15:36.593Z,102444.27
2024-01-31T20:18:05.293Z,102445.56
2024-01-31T20:20:33.795Z,102443.66
2024-01-31T20:23:02.336Z,102437.63
2024-01-31T20:25:30.925Z,102433.05
2024-01-31T20:27:59.339Z,102426.25
2024-01-31T20:30:30.147Z,102419.63
2024-01-31T20:32:59.219Z,102416.19
2024-01-31T20:35:27.867Z,102413.89
2024-01-31T20:37:56.407Z,102412.34
2024-01-31T20:40:24.683Z,102407.21
2024-01-31T20:42:53.176Z,102404.84
2024-01-31T20:45:22.408Z,102402.88
2024-01-31T20:47:50.911Z,102397.64
2024-01-31T20:50:19.514Z,102397.66
2024-01-31T20:52:48.426Z,102396.08
2024-01-31T20:55:17.004Z,102398.46
2024-01-31T20:57:45.528Z,102390.58
2024-01-31T21:00:14.728Z,102391.77
2024-01-31T21:02:44.048Z,102392.55
2024-01-31T21:05:12.793Z,102391.31
2024-01-31T21:07:41.279Z,102388.06
2024-01-31T21:10:14.032Z,102384.53
2024-01-31T21:12:43.186Z,102383.92
2024-01-31T21:15:12.582Z,102381.30
2024-01-31T21:17:41.723Z,102381.92
2024-01-31T21:20:10.911Z,102383.36
2024-01-31T21:22:39.573Z,102377.13
2024-01-31T21:25:08.666Z,102369.39
2024-01-31T21:27:37.229Z,102365.58
2024-01-31T21:30:10.035Z,102364.31
2024-01-31T21:32:38.886Z,102364.61
2024-01-31T21:35:07.912Z,102371.01
2024-01-31T21:37:36.862Z,102369.75
2024-01-31T21:40:05.616Z,102362.45
2024-01-31T21:42:34.281Z,102361.34
2024-01-31T21:45:02.704Z,102356.57
2024-01-31T21:47:31.146Z,102356.20
2024-01-31T21:49:59.576Z,102360.20
2024-01-31T21:52:27.960Z,102356.31
2024-01-31T21:54:56.334Z,102360.02
2024-01-31T21:57:24.564Z,102355.94
2024-01-31T21:59:53.365Z,102355.84
2024-01-31T22:02:21.988Z,102356.27
2024-01-31T22:04:50.564Z,102360.35
2024-01-31T22:07:20.865Z,102356.16
2024-01-31T22:09:50.092Z,102352.14
2024-01-31T22:12:18.495Z,102342.63
2024-01-31T22:14:47.286Z,102345.26
2024-01-31T22:17:15.737Z,102346.82
2024-01-31T22:19:44.113Z,102347.21
2024-01-31T22:22:12.611Z,102346.33
2024-01-31T22:24:40.977Z,102344.12
2024-01-31T22:27:09.525Z,102339.61
2024-01-31T22:29:38.285Z,102342.34
2024-01-31T22:32:06.900Z,102343.02
2024-01-31T22:34:35.493Z,102348.13
2024-01-31T22:37:07.936Z,102353.52
2024-01-31T22:39:36.457Z,102350.11
2024-01-31T22:42:05.188Z,102346.27
2024-01-31T22:44:34.111Z,102345.20
2024-01-31T22:47:02.478Z,102342.42
2024-01-31T22:49:31.198Z,102343.09
2024-01-31T22:51:59.608Z,102339.94
2024-01-31T22:54:30.095Z,102345.67
2024-01-31T22:56:58.867Z,102344.52
2024-01-31T22:59:27.388Z,102343.28
2024-01-31T23:01:56.561Z,102341.12
2024-01-31T23:04:24.929Z,102342.39
2024-01-31T23:06:53.612Z,102342.21
2024-01-31T23:09:22.377Z,102339.47
2024-01-31T23:11:51.107Z,102337.15
2024-01-31T23:14:19.569Z,102334.88
2024-01-31T23:16:48.133Z,102327.66
2024-01-31T23:19:17.176Z,102323.96
2024-01-31T23:21:45.859Z,102318.66
2024-01-31T23:24:14.399Z,102310.05
2024-01-31T23:26:43.471Z,102309.10
2024-01-31T23:29:12.530Z,102304.77
2024-01-31T23:31:41.011Z,102303.16
2024-01-31T23:34:10.226Z,102301.33
2024-01-31T23:36:38.904Z,102304.83
2024-01-31T23:39:08.035Z,102307.02
2024-01-31T23:41:36.828Z,102307.02
2024-01-31T23:44:08.362Z,102304.56
2024-01-31T23:46:36.816Z,102306.30
2024-01-31T23:49:05.359Z,102305.66
2024-01-31T23:51:34.034Z,102303.63
2024-01-31T23:54:02.574Z,102296.17
2024-01-31T23:56:31.405Z,102294.70
2024-01-31T23:58:59.793Z,102289.39
